createdAt,value
2023-05-08T00:01:02.700Z,5.00
2023-05-08T00:03:29.850Z,7.60
2023-05-08T00:05:56.860Z,5.88
2023-05-08T00:08:24.272Z,4.68
2023-05-08T00:10:51.294Z,6.53
2023-05-08T00:13:18.329Z,3.08
2023-05-08T00:15:45.343Z,7.63
2023-05-08T00:18:12.605Z,5.22
2023-05-08T00:20:39.620Z,4.00
2023-05-08T00:23:06.506Z,4.88
2023-05-08T00:25:33.668Z,6.68
2023-05-08T00:28:00.912Z,8.02
2023-05-08T00:30:27.909Z,4.72
2023-05-08T00:32:54.957Z,6.85
2023-05-08T00:35:22.056Z,7.50
2023-05-08T00:37:48.987Z,4.93
2023-05-08T00:40:16.122Z,10.07
2023-05-08T00:42:43.293Z,6.97
2023-05-08T00:45:10.773Z,6.65
2023-05-08T00:47:38.253Z,5.95
2023-05-08T00:50:05.759Z,8.93
2023-05-08T00:52:34.010Z,7.07
2023-05-08T00:55:06.646Z,5.95
2023-05-08T00:57:37.930Z,6.90
2023-05-08T01:00:05.938Z,7.03
2023-05-08T01:02:33.886Z,4.60
2023-05-08T01:05:00.999Z,8.95
2023-05-08T01:07:28.353Z,5.63
2023-05-08T01:09:55.520Z,2.65
2023-05-08T01:12:45.527Z,8.68
2023-05-08T01:15:17.440Z,4.10
2023-05-08T01:18:06.894Z,3.72
2023-05-08T01:21:05.753Z,3.03
2023-05-08T01:23:44.999Z,4.07
2023-05-08T01:27:06.909Z,5.43
2023-05-08T01:29:51.626Z,3.15
2023-05-08T01:32:26.587Z,7.07
2023-05-08T01:35:20.332Z,6.38
2023-05-08T01:38:03.863Z,6.95
2023-05-08T01:40:46.119Z,3.35
2023-05-08T01:43:34.602Z,2.28
2023-05-08T01:46:09.817Z,3.83
2023-05-08T01:48:43.345Z,3.25
2023-05-08T01:51:18.180Z,2.85
2023-05-08T01:53:49.939Z,5.00
2023-05-08T01:56:22.207Z,4.70
2023-05-08T01:58:51.521Z,5.40
2023-05-08T02:01:23.242Z,5.13
2023-05-08T02:03:52.007Z,4.03
2023-05-08T02:06:21.987Z,1.70
2023-05-08T02:08:50.421Z,3.33
2023-05-08T02:11:19.731Z,2.45
2023-05-08T02:13:48.827Z,2.63
2023-05-08T02:16:17.925Z,3.63
2023-05-08T02:18:52.635Z,4.70
2023-05-08T02:21:20.731Z,2.88
2023-05-08T02:23:48.858Z,3.65
2023-05-08T02:26:16.500Z,4.35
2023-05-08T02:28:45.145Z,2.90
2023-05-08T02:31:13.580Z,2.08
2023-05-08T02:33:44.056Z,1.80
2023-05-08T02:36:17.775Z,2.28
2023-05-08T02:41:14.497Z,4.68
2023-05-08T02:43:42.453Z,2.15
2023-05-08T02:46:49.459Z,3.45
2023-05-08T02:49:32.172Z,2.40
2023-05-08T02:52:28.591Z,3.65
2023-05-08T02:55:11.654Z,2.53
2023-05-08T02:57:38.616Z,2.15
2023-05-08T03:00:14.640Z,3.97
2023-05-08T03:03:06.431Z,3.67
2023-05-08T03:05:37.067Z,4.68
2023-05-08T03:08:14.109Z,2.15
2023-05-08T03:10:43.909Z,3.38
2023-05-08T03:13:14.004Z,2.03
2023-05-08T03:16:10.645Z,2.08
2023-05-08T03:18:47.323Z,2.67
2023-05-08T03:21:18.631Z,2.90
2023-05-08T03:23:48.110Z,5.78
2023-05-08T03:26:22.303Z,4.85
2023-05-08T03:28:51.192Z,3.15
2023-05-08T03:31:21.622Z,4.15
2023-05-08T03:33:52.139Z,3.70
2023-05-08T03:36:19.898Z,4.63
2023-05-08T03:38:47.473Z,5.25
2023-05-08T03:41:14.819Z,3.28
2023-05-08T03:43:42.021Z,2.17
2023-05-08T03:46:10.464Z,1.77
2023-05-08T03:48:38.598Z,3.05
2023-05-08T03:51:06.601Z,2.00
2023-05-08T03:53:35.864Z,3.22
2023-05-08T03:56:04.015Z,5.80
2023-05-08T03:58:48.703Z,2.95
2023-05-08T04:01:24.526Z,2.75
2023-05-08T04:04:16.910Z,5.85
2023-05-08T04:06:51.280Z,5.82
2023-05-08T04:09:49.730Z,5.00
2023-05-08T04:12:25.407Z,2.00
2023-05-08T04:15:10.713Z,2.88
2023-05-08T04:18:00.485Z,4.53
2023-05-08T04:20:30.425Z,3.75
2023-05-08T04:22:59.169Z,5.93
2023-05-08T04:25:26.932Z,6.05
2023-05-08T04:27:56.079Z,8.85
2023-05-08T04:30:23.760Z,7.18
2023-05-08T04:32:51.747Z,3.47
2023-05-08T04:35:19.139Z,5.55
2023-05-08T04:37:47.238Z,3.63
2023-05-08T04:40:14.449Z,4.93
2023-05-08T04:42:43.624Z,4.68
2023-05-08T04:45:11.172Z,8.25
2023-05-08T04:47:38.367Z,2.58
2023-05-08T04:50:06.492Z,2.92
2023-05-08T04:52:34.948Z,4.75
2023-05-08T04:55:02.405Z,2.72
2023-05-08T04:57:32.003Z,3.72
2023-05-08T04:59:58.975Z,2.97
2023-05-08T05:02:29.120Z,6.00
2023-05-08T05:04:58.808Z,3.92
2023-05-08T05:07:26.090Z,3.55
2023-05-08T05:09:53.320Z,4.22
2023-05-08T05:12:20.717Z,3.25
2023-05-08T05:14:47.675Z,3.60
2023-05-08T05:17:14.635Z,5.07
2023-05-08T05:19:41.770Z,4.57
2023-05-08T05:22:09.052Z,3.65
2023-05-08T05:24:36.250Z,4.50
2023-05-08T05:27:03.517Z,3.85
2023-05-08T05:29:30.577Z,3.00
2023-05-08T05:31:57.787Z,4.30
2023-05-08T05:34:24.817Z,5.43
2023-05-08T05:36:51.806Z,3.47
2023-05-08T05:39:18.775Z,7.30
2023-05-08T05:41:45.730Z,2.42
2023-05-08T05:44:12.871Z,4.63
2023-05-08T05:46:41.514Z,6.45
2023-05-08T05:49:09.945Z,3.33
2023-05-08T05:51:36.985Z,6.32
2023-05-08T05:54:04.136Z,6.40
2023-05-08T05:56:31.090Z,3.67
2023-05-08T05:58:58.742Z,8.70
2023-05-08T06:01:29.033Z,3.20
2023-05-08T06:03:56.787Z,3.80
2023-05-08T06:06:24.849Z,5.82
2023-05-08T06:08:51.828Z,5.47
2023-05-08T06:11:19.500Z,4.30
2023-05-08T06:13:47.259Z,6.28
2023-05-08T06:16:15.836Z,6.15
2023-05-08T06:18:42.810Z,8.63
2023-05-08T06:21:10.137Z,6.22
2023-05-08T06:23:37.294Z,9.98
2023-05-08T06:26:04.395Z,5.72
2023-05-08T06:28:31.363Z,4.25
2023-05-08T06:30:58.479Z,6.70
2023-05-08T06:33:26.927Z,5.93
2023-05-08T06:35:54.208Z,8.95
2023-05-08T06:38:21.343Z,8.98
2023-05-08T06:40:50.713Z,4.95
2023-05-08T06:43:17.833Z,4.53
2023-05-08T06:45:45.874Z,2.75
2023-05-08T06:48:13.779Z,6.47
2023-05-08T06:50:41.112Z,4.53
2023-05-08T06:53:08.576Z,5.60
2023-05-08T06:55:35.605Z,8.35
2023-05-08T06:58:03.260Z,6.47
2023-05-08T07:00:30.236Z,4.75
2023-05-08T07:02:57.274Z,12.38
2023-05-08T07:05:24.377Z,8.65
2023-05-08T07:07:54.060Z,3.85
2023-05-08T07:10:22.949Z,4.05
2023-05-08T07:12:50.340Z,4.80
2023-05-08T07:15:25.970Z,6.93
2023-05-08T07:17:53.374Z,3.45
2023-05-08T07:20:21.641Z,5.72
2023-05-08T07:22:48.796Z,6.30
2023-05-08T07:25:16.197Z,3.58
2023-05-08T07:27:43.502Z,3.65
2023-05-08T07:30:11.249Z,8.73
2023-05-08T07:32:39.472Z,4.40
2023-05-08T07:35:11.100Z,2.83
2023-05-08T07:37:39.630Z,6.07
2023-05-08T07:40:07.347Z,2.78
2023-05-08T07:42:45.102Z,8.52
2023-05-08T07:45:13.828Z,4.70
2023-05-08T07:47:55.142Z,7.72
2023-05-08T07:50:23.351Z,6.35
2023-05-08T07:52:50.950Z,11.55
2023-05-08T07:55:19.111Z,4.65
2023-05-08T07:57:46.451Z,4.45
2023-05-08T08:00:15.091Z,8.60
2023-05-08T08:02:45.694Z,7.50
2023-05-08T08:05:13.168Z,6.78
2023-05-08T08:07:40.371Z,9.63
2023-05-08T08:10:07.962Z,6.25
2023-05-08T08:12:35.269Z,4.93
2023-05-08T08:15:02.322Z,14.48
2023-05-08T08:17:29.453Z,10.50
2023-05-08T08:19:57.232Z,7.22
2023-05-08T08:22:25.142Z,8.30
2023-05-08T08:24:54.909Z,7.72
2023-05-08T08:27:22.633Z,7.55
2023-05-08T08:29:51.146Z,7.78
2023-05-08T08:32:19.932Z,7.00
2023-05-08T08:34:47.033Z,10.00
2023-05-08T08:37:14.105Z,9.18
2023-05-08T08:39:41.065Z,10.85
2023-05-08T08:42:08.130Z,9.32
2023-05-08T08:44:35.238Z,12.02
2023-05-08T08:47:05.454Z,8.40
2023-05-08T08:49:36.222Z,11.43
2023-05-08T08:52:07.365Z,9.52
2023-05-08T08:54:36.319Z,10.02
2023-05-08T08:57:09.105Z,8.30
2023-05-08T08:59:39.398Z,11.60
2023-05-08T09:02:15.113Z,11.38
2023-05-08T09:04:42.179Z,8.93
2023-05-08T09:07:11.230Z,7.53
2023-05-08T09:09:44.427Z,6.32
2023-05-08T09:12:13.392Z,10.80
2023-05-08T09:14:40.398Z,10.75
2023-05-08T09:17:07.760Z,11.43
2023-05-08T09:19:35.549Z,7.95
2023-05-08T09:22:04.424Z,13.68
2023-05-08T09:25:07.425Z,12.48
2023-05-08T09:27:36.389Z,8.25
2023-05-08T09:30:10.123Z,10.35
2023-05-08T09:32:39.582Z,9.15
2023-05-08T09:35:08.107Z,8.98
2023-05-08T09:37:40.621Z,12.48
2023-05-08T09:40:21.705Z,13.20
2023-05-08T09:42:50.366Z,9.43
2023-05-08T09:45:32.848Z,13.00
2023-05-08T09:47:59.963Z,12.07
2023-05-08T09:50:28.086Z,12.20
2023-05-08T09:52:55.450Z,14.05
2023-05-08T09:55:22.536Z,12.15
2023-05-08T09:57:56.037Z,11.68
2023-05-08T10:00:24.720Z,11.60
2023-05-08T10:03:00.746Z,13.23
2023-05-08T10:05:36.490Z,12.60
2023-05-08T10:08:20.069Z,12.35
2023-05-08T10:10:47.406Z,17.13
2023-05-08T10:13:14.769Z,16.63
2023-05-08T10:15:43.834Z,12.77
2023-05-08T10:18:14.300Z,13.40
2023-05-08T10:20:44.325Z,13.27
2023-05-08T10:23:17.431Z,15.65
2023-05-08T10:25:47.106Z,15.60
2023-05-08T10:28:18.508Z,12.02
2023-05-08T10:30:48.997Z,16.48
2023-05-08T10:33:20.971Z,15.75
2023-05-08T10:35:48.814Z,13.75
2023-05-08T10:38:17.254Z,13.02
2023-05-08T10:40:45.243Z,14.45
2023-05-08T10:43:12.776Z,13.60
2023-05-08T10:45:40.101Z,14.73
2023-05-08T10:48:24.997Z,15.55
2023-05-08T10:51:03.261Z,13.65
2023-05-08T10:53:51.514Z,13.02
2023-05-08T10:56:18.443Z,11.35
2023-05-08T10:58:45.534Z,12.13
2023-05-08T11:01:13.761Z,12.45
2023-05-08T11:03:50.628Z,10.15
2023-05-08T11:06:38.122Z,12.63
2023-05-08T11:09:05.250Z,13.55
2023-05-08T11:11:36.399Z,7.60
2023-05-08T11:14:11.421Z,9.35
2023-05-08T11:22:14.348Z,6.88
2023-05-08T11:24:50.300Z,9.40
2023-05-08T11:27:17.491Z,9.88
2023-05-08T11:29:45.339Z,8.18
2023-05-08T11:32:12.324Z,5.90
2023-05-08T11:34:42.699Z,7.00
2023-05-08T11:37:10.718Z,4.95
2023-05-08T11:39:38.376Z,7.00
2023-05-08T11:42:27.353Z,4.55
2023-05-08T11:45:21.482Z,5.22
2023-05-08T11:47:48.463Z,5.05
2023-05-08T11:50:15.745Z,3.33
2023-05-08T11:52:43.692Z,3.75
2023-05-08T11:55:12.930Z,3.90
2023-05-08T11:57:39.915Z,4.65
2023-05-08T12:00:12.333Z,4.18
2023-05-08T12:02:41.311Z,3.67
2023-05-08T12:05:09.804Z,5.63
2023-05-08T12:07:44.703Z,3.88
2023-05-08T12:10:12.287Z,6.55
2023-05-08T12:12:40.778Z,5.50
2023-05-08T12:15:14.518Z,4.65
2023-05-08T12:17:42.774Z,5.32
2023-05-08T12:20:17.228Z,4.25
2023-05-08T12:22:52.822Z,6.30
2023-05-08T12:25:20.562Z,5.72
2023-05-08T12:27:47.813Z,4.82
2023-05-08T12:30:16.264Z,5.72
2023-05-08T12:32:44.529Z,5.00
2023-05-08T12:35:13.234Z,5.82
2023-05-08T12:37:40.665Z,6.80
2023-05-08T12:40:08.776Z,7.00
2023-05-08T12:42:46.341Z,4.38
2023-05-08T12:45:28.311Z,3.85
2023-05-08T12:48:04.237Z,6.38
2023-05-08T12:50:36.046Z,7.05
2023-05-08T12:53:08.001Z,7.70
2023-05-08T12:55:37.451Z,7.88
2023-05-08T12:58:15.706Z,5.82
2023-05-08T13:00:44.257Z,4.80
2023-05-08T13:03:13.253Z,7.35
2023-05-08T13:05:45.938Z,10.93
2023-05-08T13:08:13.060Z,6.65
2023-05-08T13:10:52.752Z,8.85
2023-05-08T13:13:24.011Z,9.02
2023-05-08T13:15:52.110Z,6.85
2023-05-08T13:18:21.182Z,11.02
2023-05-08T13:20:48.438Z,9.05
2023-05-08T13:23:15.728Z,7.70
2023-05-08T13:25:42.675Z,10.02
2023-05-08T13:28:10.837Z,8.65
2023-05-08T13:30:38.467Z,10.02
2023-05-08T13:33:06.238Z,9.60
2023-05-08T13:35:34.396Z,11.10
2023-05-08T13:38:01.712Z,14.00
2023-05-08T13:40:28.871Z,7.97
2023-05-08T13:42:55.889Z,8.43
2023-05-08T13:45:22.849Z,13.55
2023-05-08T14:02:37.852Z,10.77
2023-05-08T14:05:08.181Z,10.73
2023-05-08T14:07:35.726Z,11.43
2023-05-08T14:10:03.220Z,10.50
2023-05-08T14:12:31.176Z,7.30
2023-05-08T14:14:58.297Z,9.63
2023-05-08T14:17:25.460Z,9.40
2023-05-08T14:19:52.552Z,6.72
2023-05-08T14:22:19.529Z,13.82
2023-05-08T14:24:46.738Z,7.25
2023-05-08T14:27:13.801Z,11.63
2023-05-08T14:29:41.526Z,9.68
2023-05-08T14:32:09.465Z,12.25
2023-05-08T14:34:36.438Z,10.25
2023-05-08T14:37:04.278Z,7.93
2023-05-08T14:39:31.475Z,8.70
2023-05-08T14:44:32.601Z,14.15
2023-05-08T14:46:59.516Z,11.65
2023-05-08T14:49:36.885Z,15.27
2023-05-08T14:52:06.253Z,13.93
2023-05-08T14:54:33.736Z,9.55
2023-05-08T14:57:00.881Z,9.35
2023-05-08T14:59:27.950Z,14.57
2023-05-08T15:01:55.123Z,9.05
2023-05-08T15:04:22.300Z,20.75
2023-05-08T15:06:49.328Z,11.35
2023-05-08T15:09:16.853Z,15.05
2023-05-08T15:11:44.315Z,13.40
2023-05-08T16:20:30.567Z,5.15
2023-05-08T16:22:58.862Z,6.20
2023-05-08T16:25:26.346Z,7.57
2023-05-08T16:27:53.369Z,9.02
2023-05-08T16:30:20.410Z,6.28
2023-05-08T16:32:47.514Z,5.55
2023-05-08T16:35:15.012Z,6.22
2023-05-08T16:37:43.362Z,6.00
2023-05-08T16:40:11.038Z,12.98
2023-05-08T16:42:38.425Z,7.25
2023-05-08T16:45:05.983Z,5.90
2023-05-08T16:47:37.809Z,6.22
2023-05-08T16:50:05.445Z,7.00
2023-05-08T16:52:35.328Z,5.50
2023-05-08T16:55:02.294Z,8.25
2023-05-08T16:57:32.551Z,6.22
2023-05-08T17:00:04.632Z,6.72
2023-05-08T17:02:31.972Z,7.32
2023-05-08T17:04:58.982Z,6.82
2023-05-08T17:07:25.926Z,6.20
2023-05-08T17:09:58.844Z,8.75
2023-05-08T17:12:26.298Z,6.38
2023-05-08T17:14:53.417Z,5.22
2023-05-08T17:17:20.338Z,9.05
2023-05-08T17:19:47.297Z,7.45
2023-05-08T17:22:14.357Z,5.75
2023-05-08T17:24:44.258Z,5.55
2023-05-08T17:27:11.367Z,9.60
2023-05-08T17:29:38.361Z,9.10
2023-05-08T17:32:08.805Z,10.52
2023-05-08T17:34:35.804Z,12.82
2023-05-08T17:37:02.813Z,11.35
2023-05-08T17:39:29.682Z,14.98
2023-05-08T17:41:56.759Z,11.20
2023-05-08T17:44:23.718Z,16.02
2023-05-08T17:46:50.754Z,19.75
2023-05-08T17:49:19.389Z,13.85
2023-05-08T17:51:46.744Z,12.27
2023-05-08T17:54:13.745Z,17.75
2023-05-08T17:56:40.770Z,16.88
2023-05-08T17:59:07.941Z,17.80
2023-05-08T18:01:34.900Z,14.48
2023-05-08T18:04:01.972Z,16.27
2023-05-08T18:06:29.087Z,15.52
2023-05-08T18:08:56.113Z,12.20
2023-05-08T18:11:24.839Z,15.27
2023-05-08T18:13:53.359Z,12.48
2023-05-08T18:16:22.600Z,14.23
2023-05-08T18:18:50.049Z,14.05
2023-05-08T18:21:17.142Z,22.48
2023-05-08T18:23:44.279Z,13.35
2023-05-08T18:26:15.311Z,12.55
2023-05-08T18:28:43.180Z,13.20
2023-05-08T18:31:10.976Z,12.80
2023-05-08T18:33:38.004Z,15.35
2023-05-08T18:36:07.052Z,14.45
2023-05-08T18:38:34.770Z,13.10
2023-05-08T18:41:03.164Z,15.52
2023-05-08T18:43:30.284Z,13.65
2023-05-08T18:45:58.074Z,12.48
2023-05-08T18:48:26.428Z,13.55
2023-05-08T18:50:55.804Z,15.35
2023-05-08T18:53:22.780Z,20.58
2023-05-08T18:55:49.696Z,16.85
2023-05-08T18:58:16.647Z,13.68
2023-05-08T19:00:46.192Z,11.85
2023-05-08T19:03:13.393Z,11.60
2023-05-08T19:05:43.837Z,12.15
2023-05-08T19:08:10.798Z,13.02
2023-05-08T19:10:37.784Z,13.23
2023-05-08T19:13:05.466Z,16.05
2023-05-08T19:15:38.300Z,16.88
2023-05-08T19:18:05.520Z,12.15
2023-05-08T19:20:33.349Z,12.38
2023-05-08T19:23:00.350Z,11.35
2023-05-08T19:25:27.496Z,10.40
2023-05-08T19:27:54.538Z,12.70
2023-05-08T19:30:21.571Z,10.38
2023-05-08T19:32:50.665Z,13.50
2023-05-08T19:35:17.683Z,11.25
2023-05-08T19:37:45.262Z,13.00
2023-05-08T19:40:13.170Z,12.05
2023-05-08T19:42:40.784Z,9.73
2023-05-08T19:45:11.721Z,16.83
2023-05-08T19:47:38.992Z,12.20
2023-05-08T19:50:07.326Z,12.85
2023-05-08T19:52:34.802Z,13.55
2023-05-08T19:55:01.725Z,11.25
2023-05-08T19:57:28.823Z,10.32
2023-05-08T19:59:56.180Z,10.80
2023-05-08T20:02:23.535Z,12.38
2023-05-08T20:05:14.297Z,11.52
2023-05-08T20:07:38.472Z,16.55
2023-05-08T20:10:07.081Z,9.32
2023-05-08T20:12:34.004Z,11.10
2023-05-08T20:15:00.925Z,12.48
2023-05-08T20:17:27.897Z,8.07
2023-05-08T20:19:54.971Z,9.73
2023-05-08T20:22:22.079Z,9.45
2023-05-08T20:24:52.699Z,10.30
2023-05-08T20:27:22.479Z,11.93
2023-05-08T20:29:49.432Z,11.55
2023-05-08T20:32:19.080Z,9.57
2023-05-08T20:34:46.392Z,9.90
2023-05-08T20:37:16.012Z,10.40
2023-05-08T20:39:43.634Z,6.88
2023-05-08T20:42:13.330Z,8.55
2023-05-08T20:44:40.385Z,10.45
2023-05-08T20:47:07.360Z,8.15
2023-05-08T20:49:34.305Z,8.73
2023-05-08T20:52:01.286Z,7.90
2023-05-08T20:54:29.975Z,9.02
2023-05-08T20:56:56.933Z,9.93
2023-05-08T20:59:24.073Z,7.55
2023-05-08T21:01:51.189Z,10.40
2023-05-08T21:04:18.134Z,7.82
2023-05-08T21:06:45.086Z,11.43
2023-05-08T21:09:12.067Z,9.15
2023-05-08T21:11:39.055Z,11.18
2023-05-08T21:14:06.026Z,7.65
2023-05-08T21:16:33.108Z,9.10
2023-05-08T21:19:00.080Z,7.78
2023-05-08T21:21:27.132Z,9.40
2023-05-08T21:23:54.052Z,9.52
2023-05-08T21:26:23.648Z,12.43
2023-05-08T21:28:52.551Z,9.55
2023-05-08T21:31:20.169Z,9.52
2023-05-08T21:33:47.298Z,10.43
2023-05-08T21:36:14.323Z,7.90
2023-05-08T21:38:41.689Z,9.38
2023-05-08T21:41:08.994Z,7.13
2023-05-08T21:43:36.485Z,9.10
2023-05-08T21:46:09.387Z,6.40
2023-05-08T21:48:37.479Z,9.30
2023-05-08T21:51:05.513Z,7.10
2023-05-08T21:53:32.494Z,8.57
2023-05-08T21:55:59.803Z,14.43
2023-05-08T21:58:27.551Z,13.60
2023-05-08T22:00:55.104Z,18.05
2023-05-08T22:03:23.392Z,10.18
2023-05-08T22:05:50.494Z,8.27
2023-05-08T22:08:17.408Z,8.45
2023-05-08T22:10:44.443Z,13.32
2023-05-08T22:13:12.405Z,9.02
2023-05-08T22:15:39.472Z,8.40
2023-05-08T22:18:06.480Z,10.63
2023-05-08T22:20:33.960Z,7.28
2023-05-08T22:23:00.924Z,9.77
2023-05-08T22:25:28.020Z,7.10
2023-05-08T22:27:54.948Z,7.70
2023-05-08T22:30:21.887Z,9.32
2023-05-08T22:32:55.160Z,8.60
2023-05-08T22:35:27.274Z,11.45
2023-05-08T22:37:55.300Z,12.43
2023-05-08T22:40:22.442Z,10.63
2023-05-08T22:42:51.721Z,14.00
2023-05-08T22:45:19.149Z,9.50
2023-05-08T22:47:46.343Z,8.43
2023-05-08T22:50:13.339Z,11.68
2023-05-08T22:52:40.294Z,10.43
2023-05-08T22:55:07.936Z,8.40
2023-05-08T22:57:34.929Z,13.38
2023-05-08T23:00:01.892Z,9.45
2023-05-08T23:02:33.232Z,10.98
2023-05-08T23:05:01.912Z,11.20
2023-05-08T23:07:29.591Z,12.25
2023-05-08T23:09:56.687Z,8.95
2023-05-08T23:12:23.670Z,11.55
2023-05-08T23:14:50.713Z,9.68
2023-05-08T23:17:17.705Z,7.15
2023-05-08T23:19:45.479Z,13.70
2023-05-08T23:22:12.462Z,8.50
2023-05-08T23:24:39.496Z,8.10
2023-05-08T23:27:06.495Z,8.25
2023-05-08T23:29:33.404Z,6.80
2023-05-08T23:32:00.568Z,7.38
2023-05-08T23:34:27.576Z,8.27
2023-05-08T23:36:54.509Z,10.45
2023-05-08T23:39:21.524Z,7.78
2023-05-08T23:41:48.461Z,6.07
2023-05-08T23:44:15.739Z,7.95
2023-05-08T23:46:42.774Z,12.32
2023-05-08T23:49:09.799Z,7.90
2023-05-08T23:51:36.793Z,5.82
2023-05-08T23:54:04.526Z,8.27
2023-05-08T23:56:31.455Z,7.90
2023-05-08T23:58:58.353Z,7.97
